sensor_id;sensor_type;location;lat;lon;timestamp;P1;durP1;ratioP1;P2;durP2;ratioP2
19036;SDS011;9651;49.138;8.900;2024-02-21T00:03:37;7.93;;;4.17;;
19036;SDS011;9651;49.138;8.900;2024-02-21T00:07:39;9.80;;;3.87;;
19036;SDS011;9651;49.138;8.900;2024-02-21T00:11:41;8.03;;;3.87;;
19036;SDS011;9651;49.138;8.900;2024-02-21T00:15:43;9.60;;;3.63;;
19036;SDS011;9651;49.138;8.900;2024-02-21T00:19:46;13.33;;;3.87;;
19036;SDS011;9651;49.138;8.900;2024-02-21T00:23:48;7.00;;;3.40;;
19036;SDS011;9651;49.138;8.900;2024-02-21T00:27:50;11.33;;;3.60;;
19036;SDS011;9651;49.138;8.900;2024-02-21T00:31:54;10.50;;;3.90;;
19036;SDS011;9651;49.138;8.900;2024-02-21T00:35:57;14.43;;;4.63;;
19036;SDS011;9651;49.138;8.900;2024-02-21T00:39:59;8.27;;;4.27;;
19036;SDS011;9651;49.138;8.900;2024-02-21T00:44:00;10.57;;;5.27;;
19036;SDS011;9651;49.138;8.900;2024-02-21T00:48:02;10.97;;;3.93;;
19036;SDS011;9651;49.138;8.900;2024-02-21T00:52:06;8.47;;;3.47;;
19036;SDS011;9651;49.138;8.900;2024-02-21T00:56:08;6.43;;;3.60;;
19036;SDS011;9651;49.138;8.900;2024-02-21T01:00:11;8.00;;;3.40;;
19036;SDS011;9651;49.138;8.900;2024-02-21T01:04:14;8.13;;;3.50;;
19036;SDS011;9651;49.138;8.900;2024-02-21T01:08:17;10.67;;;4.10;;
19036;SDS011;9651;49.138;8.900;2024-02-21T01:12:19;13.30;;;4.07;;
19036;SDS011;9651;49.138;8.900;2024-02-21T01:16:21;12.07;;;3.30;;
19036;SDS011;9651;49.138;8.900;2024-02-21T01:20:23;8.43;;;3.10;;
19036;SDS011;9651;49.138;8.900;2024-02-21T01:24:26;11.97;;;3.23;;
19036;SDS011;9651;49.138;8.900;2024-02-21T01:28:28;16.77;;;3.47;;
19036;SDS011;9651;49.138;8.900;2024-02-21T01:32:30;8.77;;;3.20;;
19036;SDS011;9651;49.138;8.900;2024-02-21T01:36:32;9.23;;;3.43;;
19036;SDS011;9651;49.138;8.900;2024-02-21T01:40:36;9.90;;;2.93;;
19036;SDS011;9651;49.138;8.900;2024-02-21T01:44:38;8.10;;;3.13;;
19036;SDS011;9651;49.138;8.900;2024-02-21T01:48:40;10.03;;;3.40;;
19036;SDS011;9651;49.138;8.900;2024-02-21T01:52:42;9.47;;;3.27;;
19036;SDS011;9651;49.138;8.900;2024-02-21T01:56:47;15.37;;;4.20;;
19036;SDS011;9651;49.138;8.900;2024-02-21T02:00:50;8.50;;;3.07;;
19036;SDS011;9651;49.138;8.900;2024-02-21T02:04:52;9.50;;;4.10;;
19036;SDS011;9651;49.138;8.900;2024-02-21T02:08:55;5.37;;;2.77;;
19036;SDS011;9651;49.138;8.900;2024-02-21T02:12:59;9.13;;;3.70;;
19036;SDS011;9651;49.138;8.900;2024-02-21T02:17:01;10.13;;;3.17;;
19036;SDS011;9651;49.138;8.900;2024-02-21T02:21:03;8.43;;;3.07;;
19036;SDS011;9651;49.138;8.900;2024-02-21T02:25:13;9.73;;;3.50;;
19036;SDS011;9651;49.138;8.900;2024-02-21T02:29:15;10.17;;;2.80;;
19036;SDS011;9651;49.138;8.900;2024-02-21T02:33:18;6.60;;;3.57;;
19036;SDS011;9651;49.138;8.900;2024-02-21T02:37:20;7.20;;;3.20;;
19036;SDS011;9651;49.138;8.900;2024-02-21T02:41:23;8.30;;;3.20;;
19036;SDS011;9651;49.138;8.900;2024-02-21T02:45:25;6.33;;;2.80;;
19036;SDS011;9651;49.138;8.900;2024-02-21T02:49:27;11.10;;;3.30;;
19036;SDS011;9651;49.138;8.900;2024-02-21T02:53:28;10.23;;;3.23;;
19036;SDS011;9651;49.138;8.900;2024-02-21T02:57:32;9.40;;;3.23;;
19036;SDS011;9651;49.138;8.900;2024-02-21T03:01:34;8.47;;;3.17;;
19036;SDS011;9651;49.138;8.900;2024-02-21T03:05:36;11.00;;;3.57;;
19036;SDS011;9651;49.138;8.900;2024-02-21T03:09:38;5.57;;;2.83;;
19036;SDS011;9651;49.138;8.900;2024-02-21T03:13:41;11.30;;;3.43;;
19036;SDS011;9651;49.138;8.900;2024-02-21T03:17:43;10.17;;;3.30;;
19036;SDS011;9651;49.138;8.900;2024-02-21T03:21:45;10.87;;;3.40;;
19036;SDS011;9651;49.138;8.900;2024-02-21T03:25:47;7.63;;;2.80;;
19036;SDS011;9651;49.138;8.900;2024-02-21T03:29:50;9.73;;;3.50;;
19036;SDS011;9651;49.138;8.900;2024-02-21T03:33:52;14.00;;;2.93;;
19036;SDS011;9651;49.138;8.900;2024-02-21T03:37:54;10.57;;;3.23;;
19036;SDS011;9651;49.138;8.900;2024-02-21T03:41:56;9.17;;;2.80;;
19036;SDS011;9651;49.138;8.900;2024-02-21T03:45:59;7.67;;;2.90;;
19036;SDS011;9651;49.138;8.900;2024-02-21T03:50:01;8.00;;;3.00;;
19036;SDS011;9651;49.138;8.900;2024-02-21T03:54:03;7.90;;;3.40;;
19036;SDS011;9651;49.138;8.900;2024-02-21T03:58:05;9.73;;;3.17;;
19036;SDS011;9651;49.138;8.900;2024-02-21T04:02:08;7.13;;;2.67;;
19036;SDS011;9651;49.138;8.900;2024-02-21T04:06:10;9.33;;;4.13;;
19036;SDS011;9651;49.138;8.900;2024-02-21T04:10:12;11.13;;;3.73;;
19036;SDS011;9651;49.138;8.900;2024-02-21T04:14:14;7.73;;;2.50;;
19036;SDS011;9651;49.138;8.900;2024-02-21T04:18:17;11.23;;;3.00;;
19036;SDS011;9651;49.138;8.900;2024-02-21T04:22:19;6.63;;;2.47;;
19036;SDS011;9651;49.138;8.900;2024-02-21T04:26:21;4.73;;;2.20;;
19036;SDS011;9651;49.138;8.900;2024-02-21T04:30:23;7.13;;;2.10;;
19036;SDS011;9651;49.138;8.900;2024-02-21T04:34:26;4.30;;;2.13;;
19036;SDS011;9651;49.138;8.900;2024-02-21T04:38:28;9.00;;;2.63;;
19036;SDS011;9651;49.138;8.900;2024-02-21T04:42:30;10.97;;;2.93;;
19036;SDS011;9651;49.138;8.900;2024-02-21T04:46:32;4.53;;;2.10;;
19036;SDS011;9651;49.138;8.900;2024-02-21T04:50:35;6.10;;;2.80;;
19036;SDS011;9651;49.138;8.900;2024-02-21T04:54:37;8.37;;;2.77;;
19036;SDS011;9651;49.138;8.900;2024-02-21T04:58:39;6.03;;;2.53;;
19036;SDS011;9651;49.138;8.900;2024-02-21T05:02:41;7.03;;;2.87;;
19036;SDS011;9651;49.138;8.900;2024-02-21T05:06:44;9.80;;;3.83;;
19036;SDS011;9651;49.138;8.900;2024-02-21T05:10:46;7.03;;;2.80;;
19036;SDS011;9651;49.138;8.900;2024-02-21T05:14:48;7.97;;;3.30;;
19036;SDS011;9651;49.138;8.900;2024-02-21T05:18:50;10.10;;;3.63;;
19036;SDS011;9651;49.138;8.900;2024-02-21T05:22:53;9.93;;;3.80;;
19036;SDS011;9651;49.138;8.900;2024-02-21T05:26:55;4.40;;;3.00;;
19036;SDS011;9651;49.138;8.900;2024-02-21T05:30:57;6.80;;;2.90;;
19036;SDS011;9651;49.138;8.900;2024-02-21T05:34:59;10.37;;;3.00;;
19036;SDS011;9651;49.138;8.900;2024-02-21T05:39:02;4.07;;;2.00;;
19036;SDS011;9651;49.138;8.900;2024-02-21T05:43:04;8.37;;;3.40;;
19036;SDS011;9651;49.138;8.900;2024-02-21T05:47:06;5.23;;;2.97;;
19036;SDS011;9651;49.138;8.900;2024-02-21T05:51:10;9.60;;;3.27;;
19036;SDS011;9651;49.138;8.900;2024-02-21T05:55:13;11.63;;;3.47;;
19036;SDS011;9651;49.138;8.900;2024-02-21T05:59:15;8.53;;;2.33;;
19036;SDS011;9651;49.138;8.900;2024-02-21T06:03:17;4.53;;;2.30;;
19036;SDS011;9651;49.138;8.900;2024-02-21T06:07:19;10.53;;;3.87;;
19036;SDS011;9651;49.138;8.900;2024-02-21T06:11:22;7.80;;;3.00;;
19036;SDS011;9651;49.138;8.900;2024-02-21T06:15:24;8.60;;;3.67;;
19036;SDS011;9651;49.138;8.900;2024-02-21T06:19:25;6.93;;;2.77;;
19036;SDS011;9651;49.138;8.900;2024-02-21T06:23:27;6.90;;;3.10;;
19036;SDS011;9651;49.138;8.900;2024-02-21T06:27:30;11.07;;;3.90;;
19036;SDS011;9651;49.138;8.900;2024-02-21T06:31:33;10.33;;;4.70;;
19036;SDS011;9651;49.138;8.900;2024-02-21T06:35:36;12.73;;;4.40;;
19036;SDS011;9651;49.138;8.900;2024-02-21T06:39:41;8.63;;;3.50;;
19036;SDS011;9651;49.138;8.900;2024-02-21T06:43:44;10.10;;;3.53;;
19036;SDS011;9651;49.138;8.900;2024-02-21T06:47:46;10.33;;;2.50;;
19036;SDS011;9651;49.138;8.900;2024-02-21T06:51:48;9.33;;;2.83;;
19036;SDS011;9651;49.138;8.900;2024-02-21T06:55:50;13.40;;;6.40;;
19036;SDS011;9651;49.138;8.900;2024-02-21T06:59:53;8.50;;;3.63;;
19036;SDS011;9651;49.138;8.900;2024-02-21T07:03:55;6.13;;;2.80;;
19036;SDS011;9651;49.138;8.900;2024-02-21T07:07:56;6.57;;;2.40;;
19036;SDS011;9651;49.138;8.900;2024-02-21T07:11:58;4.10;;;2.20;;
19036;SDS011;9651;49.138;8.900;2024-02-21T07:16:02;10.90;;;2.67;;
19036;SDS011;9651;49.138;8.900;2024-02-21T07:20:04;3.77;;;2.10;;
19036;SDS011;9651;49.138;8.900;2024-02-21T07:24:07;8.70;;;3.03;;
19036;SDS011;9651;49.138;8.900;2024-02-21T07:28:09;6.77;;;3.33;;
19036;SDS011;9651;49.138;8.900;2024-02-21T07:32:12;8.40;;;2.97;;
19036;SDS011;9651;49.138;8.900;2024-02-21T07:36:14;7.30;;;3.20;;
19036;SDS011;9651;49.138;8.900;2024-02-21T07:40:17;6.30;;;2.90;;
19036;SDS011;9651;49.138;8.900;2024-02-21T07:44:19;7.73;;;2.93;;
19036;SDS011;9651;49.138;8.900;2024-02-21T07:48:22;7.40;;;2.53;;
19036;SDS011;9651;49.138;8.900;2024-02-21T07:52:26;5.47;;;2.50;;
19036;SDS011;9651;49.138;8.900;2024-02-21T07:56:28;7.53;;;2.93;;
19036;SDS011;9651;49.138;8.900;2024-02-21T08:00:30;9.30;;;3.27;;
19036;SDS011;9651;49.138;8.900;2024-02-21T08:04:33;11.90;;;3.03;;
19036;SDS011;9651;49.138;8.900;2024-02-21T08:08:35;4.80;;;2.83;;
19036;SDS011;9651;49.138;8.900;2024-02-21T08:12:38;8.37;;;3.13;;
19036;SDS011;9651;49.138;8.900;2024-02-21T08:16:40;7.13;;;2.63;;
19036;SDS011;9651;49.138;8.900;2024-02-21T08:20:43;6.57;;;2.63;;
19036;SDS011;9651;49.138;8.900;2024-02-21T08:24:45;8.13;;;2.97;;
19036;SDS011;9651;49.138;8.900;2024-02-21T08:28:47;7.77;;;2.60;;
19036;SDS011;9651;49.138;8.900;2024-02-21T08:32:49;6.10;;;3.80;;
19036;SDS011;9651;49.138;8.900;2024-02-21T08:36:53;8.93;;;3.03;;
19036;SDS011;9651;49.138;8.900;2024-02-21T08:40:54;10.40;;;2.93;;
19036;SDS011;9651;49.138;8.900;2024-02-21T08:44:56;11.73;;;2.93;;
19036;SDS011;9651;49.138;8.900;2024-02-21T08:48:58;7.67;;;2.90;;
19036;SDS011;9651;49.138;8.900;2024-02-21T08:53:01;7.00;;;2.73;;
19036;SDS011;9651;49.138;8.900;2024-02-21T08:57:04;6.97;;;2.53;;
19036;SDS011;9651;49.138;8.900;2024-02-21T09:01:06;10.30;;;3.07;;
19036;SDS011;9651;49.138;8.900;2024-02-21T09:05:10;8.60;;;2.67;;
19036;SDS011;9651;49.138;8.900;2024-02-21T09:09:13;6.10;;;2.53;;
19036;SDS011;9651;49.138;8.900;2024-02-21T09:13:15;7.83;;;2.60;;
19036;SDS011;9651;49.138;8.900;2024-02-21T09:17:17;8.30;;;2.70;;
19036;SDS011;9651;49.138;8.900;2024-02-21T09:21:20;8.77;;;2.67;;
19036;SDS011;9651;49.138;8.900;2024-02-21T09:25:24;10.53;;;3.37;;
19036;SDS011;9651;49.138;8.900;2024-02-21T09:29:27;5.93;;;2.20;;
19036;SDS011;9651;49.138;8.900;2024-02-21T09:33:29;8.03;;;2.47;;
19036;SDS011;9651;49.138;8.900;2024-02-21T09:37:31;7.37;;;2.17;;
19036;SDS011;9651;49.138;8.900;2024-02-21T09:41:34;4.50;;;2.37;;
19036;SDS011;9651;49.138;8.900;2024-02-21T09:45:39;4.20;;;2.00;;
19036;SDS011;9651;49.138;8.900;2024-02-21T09:49:46;4.27;;;1.80;;
19036;SDS011;9651;49.138;8.900;2024-02-21T09:53:49;7.20;;;2.40;;
19036;SDS011;9651;49.138;8.900;2024-02-21T09:57:55;7.53;;;2.20;;
19036;SDS011;9651;49.138;8.900;2024-02-21T10:01:59;5.37;;;2.47;;
19036;SDS011;9651;49.138;8.900;2024-02-21T10:06:01;5.73;;;2.17;;
19036;SDS011;9651;49.138;8.900;2024-02-21T10:10:04;4.85;;;1.95;;
19036;SDS011;9651;49.138;8.900;2024-02-21T10:14:08;7.23;;;2.13;;
19036;SDS011;9651;49.138;8.900;2024-02-21T10:18:09;4.90;;;2.08;;
19036;SDS011;9651;49.138;8.900;2024-02-21T10:22:11;6.43;;;2.25;;
19036;SDS011;9651;49.138;8.900;2024-02-21T10:26:14;6.78;;;2.85;;
19036;SDS011;9651;49.138;8.900;2024-02-21T10:30:17;7.75;;;2.08;;
19036;SDS011;9651;49.138;8.900;2024-02-21T10:34:19;8.48;;;2.08;;
19036;SDS011;9651;49.138;8.900;2024-02-21T10:38:21;3.30;;;1.98;;
19036;SDS011;9651;49.138;8.900;2024-02-21T10:42:23;7.20;;;2.50;;
19036;SDS011;9651;49.138;8.900;2024-02-21T10:46:32;7.53;;;2.22;;
19036;SDS011;9651;49.138;8.900;2024-02-21T10:50:51;6.90;;;2.25;;
19036;SDS011;9651;49.138;8.900;2024-02-21T10:54:59;6.00;;;2.30;;
19036;SDS011;9651;49.138;8.900;2024-02-21T10:59:05;7.80;;;2.20;;
19036;SDS011;9651;49.138;8.900;2024-02-21T11:03:10;6.47;;;1.95;;
19036;SDS011;9651;49.138;8.900;2024-02-21T11:07:13;5.15;;;1.73;;
19036;SDS011;9651;49.138;8.900;2024-02-21T11:11:15;8.15;;;2.10;;
19036;SDS011;9651;49.138;8.900;2024-02-21T11:15:24;7.05;;;2.58;;
19036;SDS011;9651;49.138;8.900;2024-02-21T11:19:28;4.57;;;1.85;;
19036;SDS011;9651;49.138;8.900;2024-02-21T11:23:31;6.00;;;2.25;;
19036;SDS011;9651;49.138;8.900;2024-02-21T11:27:33;6.95;;;2.42;;
19036;SDS011;9651;49.138;8.900;2024-02-21T11:31:38;6.70;;;1.92;;
19036;SDS011;9651;49.138;8.900;2024-02-21T11:35:43;6.38;;;2.30;;
19036;SDS011;9651;49.138;8.900;2024-02-21T11:39:46;6.90;;;2.10;;
19036;SDS011;9651;49.138;8.900;2024-02-21T11:43:49;3.65;;;2.13;;
19036;SDS011;9651;49.138;8.900;2024-02-21T11:47:51;5.45;;;1.95;;
19036;SDS011;9651;49.138;8.900;2024-02-21T11:52:00;9.32;;;2.50;;
19036;SDS011;9651;49.138;8.900;2024-02-21T11:56:04;4.53;;;1.90;;
19036;SDS011;9651;49.138;8.900;2024-02-21T12:00:13;5.85;;;2.33;;
19036;SDS011;9651;49.138;8.900;2024-02-21T12:04:16;4.45;;;1.65;;
19036;SDS011;9651;49.138;8.900;2024-02-21T12:08:20;5.63;;;2.30;;
19036;SDS011;9651;49.138;8.900;2024-02-21T12:12:22;7.07;;;2.30;;
19036;SDS011;9651;49.138;8.900;2024-02-21T12:16:24;10.30;;;2.75;;
19036;SDS011;9651;49.138;8.900;2024-02-21T12:20:28;10.00;;;2.38;;
19036;SDS011;9651;49.138;8.900;2024-02-21T12:24:32;8.32;;;2.50;;
19036;SDS011;9651;49.138;8.900;2024-02-21T12:28:35;3.95;;;1.58;;
19036;SDS011;9651;49.138;8.900;2024-02-21T12:32:37;6.72;;;2.10;;
19036;SDS011;9651;49.138;8.900;2024-02-21T12:36:40;5.03;;;2.20;;
19036;SDS011;9651;49.138;8.900;2024-02-21T12:40:45;6.28;;;1.83;;
19036;SDS011;9651;49.138;8.900;2024-02-21T12:44:47;11.35;;;1.95;;
19036;SDS011;9651;49.138;8.900;2024-02-21T12:48:49;5.35;;;1.70;;
19036;SDS011;9651;49.138;8.900;2024-02-21T12:52:51;6.50;;;1.75;;
19036;SDS011;9651;49.138;8.900;2024-02-21T12:56:55;8.13;;;1.98;;
19036;SDS011;9651;49.138;8.900;2024-02-21T13:00:56;4.00;;;1.67;;
19036;SDS011;9651;49.138;8.900;2024-02-21T13:04:58;3.38;;;1.70;;
19036;SDS011;9651;49.138;8.900;2024-02-21T13:09:02;7.88;;;2.30;;
19036;SDS011;9651;49.138;8.900;2024-02-21T13:13:09;7.00;;;2.70;;
19036;SDS011;9651;49.138;8.900;2024-02-21T13:17:12;5.82;;;2.30;;
19036;SDS011;9651;49.138;8.900;2024-02-21T13:21:15;7.88;;;1.88;;
19036;SDS011;9651;49.138;8.900;2024-02-21T13:25:16;4.50;;;1.80;;
19036;SDS011;9651;49.138;8.900;2024-02-21T13:29:22;6.15;;;2.38;;
19036;SDS011;9651;49.138;8.900;2024-02-21T13:33:24;7.53;;;2.17;;
19036;SDS011;9651;49.138;8.900;2024-02-21T13:37:26;4.72;;;1.92;;
19036;SDS011;9651;49.138;8.900;2024-02-21T13:41:28;6.30;;;2.67;;
19036;SDS011;9651;49.138;8.900;2024-02-21T13:45:32;9.20;;;3.05;;
19036;SDS011;9651;49.138;8.900;2024-02-21T13:49:34;10.43;;;3.88;;
19036;SDS011;9651;49.138;8.900;2024-02-21T13:53:36;7.55;;;2.70;;
19036;SDS011;9651;49.138;8.900;2024-02-21T13:57:38;6.68;;;2.50;;
19036;SDS011;9651;49.138;8.900;2024-02-21T14:01:41;7.93;;;2.53;;
19036;SDS011;9651;49.138;8.900;2024-02-21T14:05:44;7.00;;;2.50;;
19036;SDS011;9651;49.138;8.900;2024-02-21T14:09:48;5.00;;;1.80;;
19036;SDS011;9651;49.138;8.900;2024-02-21T14:13:50;6.25;;;2.15;;
19036;SDS011;9651;49.138;8.900;2024-02-21T14:17:53;7.68;;;2.17;;
19036;SDS011;9651;49.138;8.900;2024-02-21T14:21:56;4.93;;;1.87;;
19036;SDS011;9651;49.138;8.900;2024-02-21T14:25:58;3.53;;;1.37;;
19036;SDS011;9651;49.138;8.900;2024-02-21T14:30:00;2.60;;;1.37;;
19036;SDS011;9651;49.138;8.900;2024-02-21T14:34:04;4.78;;;2.03;;
19036;SDS011;9651;49.138;8.900;2024-02-21T14:38:07;3.27;;;1.53;;
19036;SDS011;9651;49.138;8.900;2024-02-21T14:42:09;6.22;;;1.95;;
19036;SDS011;9651;49.138;8.900;2024-02-21T14:46:11;4.47;;;1.60;;
19036;SDS011;9651;49.138;8.900;2024-02-21T14:50:14;3.35;;;1.90;;
19036;SDS011;9651;49.138;8.900;2024-02-21T14:54:16;7.13;;;1.95;;
19036;SDS011;9651;49.138;8.900;2024-02-21T14:58:19;3.83;;;1.57;;
19036;SDS011;9651;49.138;8.900;2024-02-21T15:02:21;5.77;;;2.17;;
19036;SDS011;9651;49.138;8.900;2024-02-21T15:06:25;4.33;;;1.77;;
19036;SDS011;9651;49.138;8.900;2024-02-21T15:10:28;7.60;;;2.00;;
19036;SDS011;9651;49.138;8.900;2024-02-21T15:14:30;6.43;;;1.87;;
19036;SDS011;9651;49.138;8.900;2024-02-21T15:18:32;10.37;;;2.23;;
19036;SDS011;9651;49.138;8.900;2024-02-21T15:22:37;6.63;;;2.43;;
19036;SDS011;9651;49.138;8.900;2024-02-21T15:26:39;8.40;;;2.20;;
19036;SDS011;9651;49.138;8.900;2024-02-21T15:30:41;7.00;;;2.67;;
19036;SDS011;9651;49.138;8.900;2024-02-21T15:34:43;6.33;;;2.47;;
19036;SDS011;9651;49.138;8.900;2024-02-21T15:38:46;8.53;;;2.83;;
19036;SDS011;9651;49.138;8.900;2024-02-21T15:42:48;7.10;;;2.40;;
19036;SDS011;9651;49.138;8.900;2024-02-21T15:46:50;10.67;;;4.63;;
19036;SDS011;9651;49.138;8.900;2024-02-21T15:50:53;10.03;;;3.93;;
19036;SDS011;9651;49.138;8.900;2024-02-21T15:54:56;8.10;;;3.63;;
19036;SDS011;9651;49.138;8.900;2024-02-21T15:58:58;7.67;;;2.60;;
19036;SDS011;9651;49.138;8.900;2024-02-21T16:03:00;8.80;;;2.43;;
19036;SDS011;9651;49.138;8.900;2024-02-21T16:07:03;8.97;;;3.03;;
19036;SDS011;9651;49.138;8.900;2024-02-21T16:11:06;8.47;;;3.07;;
19036;SDS011;9651;49.138;8.900;2024-02-21T16:15:16;6.97;;;2.93;;
19036;SDS011;9651;49.138;8.900;2024-02-21T16:19:18;6.73;;;3.40;;
19036;SDS011;9651;49.138;8.900;2024-02-21T16:23:20;10.50;;;3.33;;
19036;SDS011;9651;49.138;8.900;2024-02-21T16:27:24;9.70;;;4.20;;
19036;SDS011;9651;49.138;8.900;2024-02-21T16:31:25;10.60;;;3.97;;
19036;SDS011;9651;49.138;8.900;2024-02-21T16:35:27;10.43;;;5.27;;
19036;SDS011;9651;49.138;8.900;2024-02-21T16:39:29;11.87;;;4.73;;
19036;SDS011;9651;49.138;8.900;2024-02-21T16:43:32;8.07;;;3.43;;
19036;SDS011;9651;49.138;8.900;2024-02-21T16:47:34;9.93;;;3.50;;
19036;SDS011;9651;49.138;8.900;2024-02-21T16:51:36;6.50;;;2.47;;
19036;SDS011;9651;49.138;8.900;2024-02-21T16:55:38;6.73;;;2.60;;
19036;SDS011;9651;49.138;8.900;2024-02-21T16:59:41;6.03;;;2.50;;
19036;SDS011;9651;49.138;8.900;2024-02-21T17:03:43;8.90;;;2.77;;
19036;SDS011;9651;49.138;8.900;2024-02-21T17:07:45;7.17;;;2.67;;
19036;SDS011;9651;49.138;8.900;2024-02-21T17:11:47;9.00;;;3.50;;
19036;SDS011;9651;49.138;8.900;2024-02-21T17:15:51;11.23;;;4.90;;
19036;SDS011;9651;49.138;8.900;2024-02-21T17:19:53;8.30;;;4.13;;
19036;SDS011;9651;49.138;8.900;2024-02-21T17:23:55;10.73;;;5.27;;
19036;SDS011;9651;49.138;8.900;2024-02-21T17:27:57;8.50;;;4.53;;
19036;SDS011;9651;49.138;8.900;2024-02-21T17:32:00;11.60;;;6.03;;
19036;SDS011;9651;49.138;8.900;2024-02-21T17:36:02;11.37;;;5.60;;
19036;SDS011;9651;49.138;8.900;2024-02-21T17:40:05;12.23;;;5.73;;
19036;SDS011;9651;49.138;8.900;2024-02-21T17:44:08;10.73;;;5.97;;
19036;SDS011;9651;49.138;8.900;2024-02-21T17:48:11;10.93;;;5.90;;
19036;SDS011;9651;49.138;8.900;2024-02-21T17:52:13;12.37;;;5.33;;
19036;SDS011;9651;49.138;8.900;2024-02-21T17:56:15;9.57;;;4.53;;
19036;SDS011;9651;49.138;8.900;2024-02-21T18:00:20;10.03;;;4.20;;
19036;SDS011;9651;49.138;8.900;2024-02-21T18:04:24;7.03;;;3.23;;
19036;SDS011;9651;49.138;8.900;2024-02-21T18:08:26;7.40;;;2.77;;
19036;SDS011;9651;49.138;8.900;2024-02-21T18:12:28;7.30;;;2.93;;
19036;SDS011;9651;49.138;8.900;2024-02-21T18:16:30;9.53;;;2.47;;
19036;SDS011;9651;49.138;8.900;2024-02-21T18:20:33;5.97;;;2.57;;
19036;SDS011;9651;49.138;8.900;2024-02-21T18:24:36;6.80;;;2.27;;
19036;SDS011;9651;49.138;8.900;2024-02-21T18:28:38;4.37;;;2.30;;
19036;SDS011;9651;49.138;8.900;2024-02-21T18:32:40;5.53;;;3.17;;
19036;SDS011;9651;49.138;8.900;2024-02-21T18:36:45;7.57;;;3.00;;
19036;SDS011;9651;49.138;8.900;2024-02-21T18:40:47;7.13;;;2.37;;
19036;SDS011;9651;49.138;8.900;2024-02-21T18:44:49;6.03;;;2.77;;
19036;SDS011;9651;49.138;8.900;2024-02-21T18:48:54;8.60;;;3.10;;
19036;SDS011;9651;49.138;8.900;2024-02-21T18:52:57;2.80;;;2.40;;
19036;SDS011;9651;49.138;8.900;2024-02-21T18:56:59;4.97;;;2.73;;
19036;SDS011;9651;49.138;8.900;2024-02-21T19:01:01;9.87;;;2.60;;
19036;SDS011;9651;49.138;8.900;2024-02-21T19:05:04;7.63;;;2.70;;
19036;SDS011;9651;49.138;8.900;2024-02-21T19:09:08;7.13;;;3.30;;
19036;SDS011;9651;49.138;8.900;2024-02-21T19:13:10;6.80;;;2.57;;
19036;SDS011;9651;49.138;8.900;2024-02-21T19:17:12;10.43;;;3.10;;
19036;SDS011;9651;49.138;8.900;2024-02-21T19:21:14;8.13;;;3.40;;
19036;SDS011;9651;49.138;8.900;2024-02-21T19:25:18;8.93;;;3.67;;
19036;SDS011;9651;49.138;8.900;2024-02-21T19:29:21;16.40;;;4.10;;
19036;SDS011;9651;49.138;8.900;2024-02-21T19:33:24;12.33;;;5.23;;
19036;SDS011;9651;49.138;8.900;2024-02-21T19:37:26;8.77;;;4.50;;
19036;SDS011;9651;49.138;8.900;2024-02-21T19:41:29;8.27;;;4.03;;
19036;SDS011;9651;49.138;8.900;2024-02-21T19:45:31;10.27;;;4.33;;
19036;SDS011;9651;49.138;8.900;2024-02-21T19:49:34;8.47;;;3.97;;
19036;SDS011;9651;49.138;8.900;2024-02-21T19:53:36;12.97;;;3.77;;
19036;SDS011;9651;49.138;8.900;2024-02-21T19:57:39;7.90;;;3.80;;
19036;SDS011;9651;49.138;8.900;2024-02-21T20:01:41;7.03;;;3.90;;
19036;SDS011;9651;49.138;8.900;2024-02-21T20:05:43;10.20;;;4.30;;
19036;SDS011;9651;49.138;8.900;2024-02-21T20:09:46;5.67;;;3.63;;
19036;SDS011;9651;49.138;8.900;2024-02-21T20:13:50;10.53;;;4.53;;
19036;SDS011;9651;49.138;8.900;2024-02-21T20:17:51;7.60;;;4.67;;
19036;SDS011;9651;49.138;8.900;2024-02-21T20:21:54;9.33;;;4.33;;
19036;SDS011;9651;49.138;8.900;2024-02-21T20:25:57;10.00;;;4.47;;
19036;SDS011;9651;49.138;8.900;2024-02-21T20:30:00;6.07;;;3.20;;
19036;SDS011;9651;49.138;8.900;2024-02-21T20:34:02;6.93;;;2.60;;
19036;SDS011;9651;49.138;8.900;2024-02-21T20:38:05;3.87;;;1.73;;
19036;SDS011;9651;49.138;8.900;2024-02-21T20:42:07;9.57;;;2.40;;
19036;SDS011;9651;49.138;8.900;2024-02-21T20:46:10;5.17;;;4.03;;
19036;SDS011;9651;49.138;8.900;2024-02-21T20:50:13;2.10;;;1.60;;
19036;SDS011;9651;49.138;8.900;2024-02-21T20:54:15;1.93;;;1.40;;
19036;SDS011;9651;49.138;8.900;2024-02-21T20:58:17;6.37;;;1.40;;
19036;SDS011;9651;49.138;8.900;2024-02-21T21:02:21;1.33;;;0.90;;
19036;SDS011;9651;49.138;8.900;2024-02-21T21:06:23;0.80;;;0.70;;
19036;SDS011;9651;49.138;8.900;2024-02-21T21:10:25;1.03;;;0.80;;
19036;SDS011;9651;49.138;8.900;2024-02-21T21:14:27;2.83;;;0.90;;
19036;SDS011;9651;49.138;8.900;2024-02-21T21:18:31;1.27;;;1.00;;
19036;SDS011;9651;49.138;8.900;2024-02-21T21:22:33;0.73;;;0.70;;
19036;SDS011;9651;49.138;8.900;2024-02-21T21:26:35;1.00;;;0.50;;
19036;SDS011;9651;49.138;8.900;2024-02-21T21:30:37;1.10;;;0.50;;
19036;SDS011;9651;49.138;8.900;2024-02-21T21:34:40;1.43;;;0.90;;
19036;SDS011;9651;49.138;8.900;2024-02-21T21:38:43;1.43;;;1.07;;
19036;SDS011;9651;49.138;8.900;2024-02-21T21:42:48;2.73;;;1.87;;
19036;SDS011;9651;49.138;8.900;2024-02-21T21:46:51;4.97;;;2.43;;
19036;SDS011;9651;49.138;8.900;2024-02-21T21:50:54;7.20;;;3.57;;
19036;SDS011;9651;49.138;8.900;2024-02-21T21:54:56;4.83;;;3.27;;
19036;SDS011;9651;49.138;8.900;2024-02-21T21:58:58;4.00;;;2.30;;
19036;SDS011;9651;49.138;8.900;2024-02-21T22:03:03;6.73;;;3.67;;
19036;SDS011;9651;49.138;8.900;2024-02-21T22:07:06;4.73;;;2.73;;
19036;SDS011;9651;49.138;8.900;2024-02-21T22:11:08;6.00;;;3.20;;
19036;SDS011;9651;49.138;8.900;2024-02-21T22:15:13;6.90;;;4.60;;
19036;SDS011;9651;49.138;8.900;2024-02-21T22:19:16;6.13;;;2.47;;
19036;SDS011;9651;49.138;8.900;2024-02-21T22:23:19;6.00;;;3.10;;
19036;SDS011;9651;49.138;8.900;2024-02-21T22:27:21;4.10;;;3.03;;
19036;SDS011;9651;49.138;8.900;2024-02-21T22:31:24;2.40;;;2.00;;
19036;SDS011;9651;49.138;8.900;2024-02-21T22:35:26;3.70;;;2.50;;
19036;SDS011;9651;49.138;8.900;2024-02-21T22:39:29;3.70;;;2.30;;
19036;SDS011;9651;49.138;8.900;2024-02-21T22:43:32;3.57;;;1.80;;
19036;SDS011;9651;49.138;8.900;2024-02-21T22:47:34;3.57;;;1.77;;
19036;SDS011;9651;49.138;8.900;2024-02-21T22:51:36;2.47;;;1.63;;
19036;SDS011;9651;49.138;8.900;2024-02-21T22:55:39;2.70;;;2.10;;
19036;SDS011;9651;49.138;8.900;2024-02-21T22:59:41;3.03;;;1.90;;
19036;SDS011;9651;49.138;8.900;2024-02-21T23:03:43;2.53;;;1.77;;
19036;SDS011;9651;49.138;8.900;2024-02-21T23:07:45;2.70;;;1.80;;
19036;SDS011;9651;49.138;8.900;2024-02-21T23:11:51;4.70;;;2.40;;
19036;SDS011;9651;49.138;8.900;2024-02-21T23:15:53;2.80;;;2.20;;
19036;SDS011;9651;49.138;8.900;2024-02-21T23:19:55;6.70;;;2.37;;
19036;SDS011;9651;49.138;8.900;2024-02-21T23:23:57;3.80;;;1.63;;
19036;SDS011;9651;49.138;8.900;2024-02-21T23:28:00;5.47;;;2.07;;
19036;SDS011;9651;49.138;8.900;2024-02-21T23:32:02;2.90;;;1.87;;
19036;SDS011;9651;49.138;8.900;2024-02-21T23:36:05;6.07;;;2.03;;
19036;SDS011;9651;49.138;8.900;2024-02-21T23:40:09;4.03;;;2.23;;
19036;SDS011;9651;49.138;8.900;2024-02-21T23:44:13;3.50;;;2.00;;
19036;SDS011;9651;49.138;8.900;2024-02-21T23:48:16;3.23;;;1.97;;
19036;SDS011;9651;49.138;8.900;2024-02-21T23:52:18;3.50;;;1.83;;
19036;SDS011;9651;49.138;8.900;2024-02-21T23:56:19;5.70;;;2.07;;
